createdAt,value
2022-09-26T00:00:03.210Z,91.42
2022-09-26T00:02:41.167Z,91.76
2022-09-26T00:05:11.641Z,91.72
2022-09-26T00:07:40.347Z,91.87
2022-09-26T00:10:10.480Z,91.81
2022-09-26T00:12:39.410Z,91.74
2022-09-26T00:15:11.421Z,91.51
2022-09-26T00:17:40.188Z,91.40
2022-09-26T00:20:10.101Z,91.40
2022-09-26T00:22:39.016Z,91.50
2022-09-26T00:25:09.349Z,91.30
2022-09-26T00:27:38.303Z,91.34
2022-09-26T00:30:10.034Z,91.17
2022-09-26T00:32:38.838Z,91.10
2022-09-26T00:35:09.045Z,91.18
2022-09-26T00:37:37.736Z,91.17
2022-09-26T00:40:07.654Z,91.16
2022-09-26T00:42:36.560Z,91.25
2022-09-26T00:45:06.131Z,91.25
2022-09-26T00:47:45.773Z,90.95
2022-09-26T00:50:21.793Z,91.02
2022-09-26T00:52:56.303Z,90.72
2022-09-26T00:55:30.377Z,91.00
2022-09-26T00:58:05.637Z,90.92
2022-09-26T01:00:35.205Z,91.05
2022-09-26T01:03:06.625Z,90.99
2022-09-26T01:05:37.963Z,90.94
2022-09-26T01:08:08.461Z,90.87
2022-09-26T01:10:39.184Z,91.08
2022-09-26T01:13:09.684Z,91.03
2022-09-26T01:15:38.450Z,90.89
2022-09-26T01:18:08.796Z,91.05
2022-09-26T01:20:52.730Z,90.82
2022-09-26T01:24:13.553Z,90.87
2022-09-26T01:27:28.528Z,90.65
2022-09-26T01:30:21.897Z,90.63
2022-09-26T01:33:29.166Z,90.72
2022-09-26T01:36:32.092Z,90.93
2022-09-26T01:39:23.352Z,90.94
2022-09-26T01:42:04.548Z,91.11
2022-09-26T01:44:42.571Z,91.00
2022-09-26T01:47:19.319Z,90.83
2022-09-26T01:49:59.887Z,90.76
2022-09-26T01:52:38.253Z,90.77
2022-09-26T01:55:13.938Z,90.96
2022-09-26T01:57:50.863Z,91.05
2022-09-26T02:00:20.990Z,91.22
2022-09-26T02:02:52.641Z,91.00
2022-09-26T02:05:32.941Z,90.78
2022-09-26T02:08:11.375Z,90.78
2022-09-26T02:10:47.677Z,90.74
2022-09-26T02:13:23.457Z,90.66
2022-09-26T02:15:58.857Z,91.04
2022-09-26T02:18:35.012Z,91.10
2022-09-26T02:21:14.637Z,91.18
2022-09-26T02:23:43.733Z,91.17
2022-09-26T02:26:12.985Z,90.98
2022-09-26T02:28:41.840Z,90.81
2022-09-26T02:31:21.264Z,90.79
2022-09-26T02:33:53.830Z,90.53
2022-09-26T02:36:24.169Z,90.81
2022-09-26T02:38:54.511Z,91.26
2022-09-26T02:41:51.037Z,90.89
2022-09-26T02:44:41.047Z,90.66
2022-09-26T02:47:41.743Z,90.92
2022-09-26T02:50:40.649Z,90.63
2022-09-26T02:53:33.658Z,91.06
2022-09-26T02:56:14.418Z,91.11
2022-09-26T02:58:59.844Z,90.92
2022-09-26T03:01:40.406Z,90.53
2022-09-26T03:04:19.418Z,90.42
2022-09-26T03:06:57.757Z,90.69
2022-09-26T03:09:30.416Z,90.70
2022-09-26T03:12:05.401Z,90.82
2022-09-26T03:14:39.085Z,90.80
2022-09-26T03:17:09.642Z,90.60
2022-09-26T03:19:47.945Z,90.90
2022-09-26T03:22:18.609Z,90.85
2022-09-26T03:24:48.572Z,90.98
2022-09-26T03:27:19.835Z,90.77
2022-09-26T03:29:50.870Z,90.60
2022-09-26T03:32:24.137Z,90.41
2022-09-26T03:34:52.785Z,90.57
2022-09-26T03:37:22.951Z,90.76
2022-09-26T03:39:52.493Z,90.73
2022-09-26T03:42:31.103Z,90.53
2022-09-26T03:45:00.696Z,90.45
2022-09-26T03:47:32.870Z,90.37
2022-09-26T03:50:01.666Z,90.48
2022-09-26T03:52:33.789Z,90.71
2022-09-26T03:55:02.607Z,90.52
2022-09-26T03:57:32.550Z,90.97
2022-09-26T04:00:14.506Z,91.23
2022-09-26T04:02:47.646Z,90.85
2022-09-26T04:05:32.713Z,90.71
2022-09-26T04:08:04.107Z,90.38
2022-09-26T04:10:33.381Z,90.54
2022-09-26T04:13:03.277Z,90.99
2022-09-26T04:15:31.970Z,91.41
2022-09-26T04:18:10.015Z,91.14
2022-09-26T04:20:38.770Z,90.54
2022-09-26T04:23:09.235Z,90.29
2022-09-26T04:25:39.132Z,90.97
2022-09-26T04:28:08.483Z,90.80
2022-09-26T04:30:40.176Z,90.48
2022-09-26T04:33:10.736Z,90.48
2022-09-26T04:36:06.945Z,90.31
2022-09-26T04:38:38.119Z,90.52
2022-09-26T04:41:11.782Z,90.52
2022-09-26T04:43:41.421Z,90.63
2022-09-26T04:46:21.719Z,90.38
2022-09-26T04:48:55.048Z,90.60
2022-09-26T04:51:26.830Z,90.62
2022-09-26T04:53:57.584Z,89.99
2022-09-26T04:56:32.195Z,89.46
2022-09-26T04:59:02.370Z,89.91
2022-09-26T05:01:54.960Z,89.70
2022-09-26T05:04:39.323Z,89.69
2022-09-26T05:07:08.155Z,89.65
2022-09-26T05:09:38.551Z,89.59
2022-09-26T05:12:10.014Z,89.72
2022-09-26T05:14:42.000Z,89.80
2022-09-26T05:17:12.138Z,89.87
2022-09-26T05:19:43.179Z,89.80
2022-09-26T05:22:31.667Z,90.08
2022-09-26T05:25:19.459Z,89.86
2022-09-26T05:27:50.177Z,89.75
2022-09-26T05:30:19.516Z,89.81
2022-09-26T05:32:48.632Z,89.69
2022-09-26T05:35:19.001Z,89.60
2022-09-26T05:37:48.047Z,89.21
2022-09-26T05:40:35.819Z,89.30
2022-09-26T05:43:05.168Z,89.29
2022-09-26T05:45:34.484Z,89.25
2022-09-26T05:48:04.614Z,88.80
2022-09-26T05:50:34.236Z,88.65
2022-09-26T05:53:04.487Z,88.55
2022-09-26T05:55:37.541Z,88.80
2022-09-26T05:58:34.873Z,88.59
2022-09-26T06:01:20.391Z,88.30
2022-09-26T06:03:57.004Z,88.40
2022-09-26T06:06:31.015Z,88.28
2022-09-26T06:09:10.657Z,88.32
2022-09-26T06:12:12.972Z,88.45
2022-09-26T06:14:42.673Z,88.13
2022-09-26T06:17:11.626Z,88.34
2022-09-26T06:19:40.805Z,88.27
2022-09-26T06:22:09.710Z,87.94
2022-09-26T06:24:39.785Z,88.00
2022-09-26T06:27:17.366Z,88.06
2022-09-26T06:29:47.511Z,87.75
2022-09-26T06:32:16.678Z,87.43
2022-09-26T06:35:15.208Z,87.63
2022-09-26T06:37:49.938Z,87.55
2022-09-26T06:40:19.726Z,87.60
2022-09-26T06:42:49.969Z,87.73
2022-09-26T06:45:38.521Z,87.50
2022-09-26T06:48:18.883Z,87.66
2022-09-26T06:51:00.995Z,87.56
2022-09-26T06:53:32.494Z,87.27
2022-09-26T06:56:03.381Z,86.95
2022-09-26T06:58:34.470Z,86.88
2022-09-26T07:01:07.719Z,87.18
2022-09-26T07:04:05.492Z,87.09
2022-09-26T07:06:38.827Z,87.26
2022-09-26T07:09:12.200Z,86.93
2022-09-26T07:12:17.453Z,86.93
2022-09-26T07:14:52.872Z,86.86
2022-09-26T07:17:32.423Z,86.88
2022-09-26T07:20:33.432Z,86.19
2022-09-26T07:23:08.674Z,86.00
2022-09-26T07:25:39.773Z,85.84
2022-09-26T07:28:10.819Z,85.61
2022-09-26T07:30:52.081Z,85.41
2022-09-26T07:33:35.517Z,85.56
2022-09-26T07:36:10.504Z,85.01
2022-09-26T07:38:39.417Z,85.05
2022-09-26T07:41:10.978Z,84.97
2022-09-26T07:46:49.199Z,85.03
2022-09-26T07:49:35.257Z,84.46
2022-09-26T07:52:09.935Z,84.34
2022-09-26T07:54:49.164Z,83.91
2022-09-26T07:57:38.216Z,83.98
2022-09-26T08:00:27.393Z,83.69
2022-09-26T08:03:28.771Z,83.79
2022-09-26T08:06:02.788Z,83.32
2022-09-26T08:08:32.100Z,83.33
2022-09-26T08:11:04.249Z,83.17
2022-09-26T08:13:50.621Z,82.94
2022-09-26T08:16:23.054Z,82.65
2022-09-26T08:18:56.519Z,82.82
2022-09-26T08:21:26.784Z,81.91
2022-09-26T08:23:58.674Z,82.24
2022-09-26T08:26:33.348Z,82.15
2022-09-26T08:29:12.495Z,82.06
2022-09-26T08:31:42.363Z,82.37
2022-09-26T08:34:12.545Z,82.37
2022-09-26T08:36:41.906Z,82.06
2022-09-26T08:39:36.604Z,81.97
2022-09-26T08:42:46.206Z,81.85
2022-09-26T08:46:07.297Z,81.61
2022-09-26T08:49:35.092Z,81.43
2022-09-26T08:52:21.581Z,80.96
2022-09-26T08:54:53.653Z,81.14
2022-09-26T08:57:38.126Z,81.50
2022-09-26T09:00:20.232Z,81.24
2022-09-26T09:03:16.852Z,80.73
2022-09-26T09:05:53.448Z,80.57
2022-09-26T09:08:29.032Z,80.59
2022-09-26T09:11:26.210Z,80.28
2022-09-26T09:14:17.033Z,80.40
2022-09-26T09:17:13.808Z,80.30
2022-09-26T09:20:14.026Z,80.20
2022-09-26T09:23:21.480Z,79.83
2022-09-26T09:29:31.008Z,79.45
2022-09-26T09:32:30.255Z,78.91
2022-09-26T09:35:35.300Z,79.11
2022-09-26T09:38:33.007Z,79.05
2022-09-26T09:41:13.059Z,78.80
2022-09-26T09:43:47.679Z,78.48
2022-09-26T09:46:25.193Z,78.40
2022-09-26T09:49:01.504Z,78.80
2022-09-26T09:51:42.553Z,78.43
2022-09-26T09:54:48.631Z,77.20
2022-09-26T09:57:43.951Z,77.12
2022-09-26T10:00:17.801Z,77.29
2022-09-26T10:03:24.351Z,77.34
2022-09-26T10:06:00.710Z,77.10
2022-09-26T10:08:37.580Z,76.58
2022-09-26T10:11:26.421Z,76.52
2022-09-26T10:14:03.501Z,76.52
2022-09-26T10:17:18.223Z,75.45
2022-09-26T10:20:00.280Z,76.21
2022-09-26T10:22:37.569Z,76.17
2022-09-26T10:25:18.507Z,76.10
2022-09-26T10:27:55.262Z,76.23
2022-09-26T10:30:28.413Z,75.67
2022-09-26T10:33:05.484Z,75.23
2022-09-26T10:35:44.341Z,76.17
2022-09-26T10:38:22.475Z,76.08
2022-09-26T10:41:06.061Z,76.18
2022-09-26T10:43:39.925Z,76.07
2022-09-26T10:46:24.922Z,76.03
2022-09-26T10:49:17.220Z,75.75
2022-09-26T10:52:23.867Z,75.41
2022-09-26T10:55:00.088Z,75.33
2022-09-26T10:57:36.765Z,75.41
2022-09-26T11:00:09.774Z,75.45
2022-09-26T11:02:39.761Z,74.82
2022-09-26T11:05:27.294Z,74.80
2022-09-26T11:08:29.930Z,74.77
2022-09-26T11:11:27.671Z,74.67
2022-09-26T11:14:05.366Z,73.20
2022-09-26T11:16:54.013Z,74.71
2022-09-26T11:19:40.841Z,74.34
2022-09-26T11:22:19.780Z,74.05
2022-09-26T11:24:59.529Z,74.35
2022-09-26T11:27:43.531Z,74.28
2022-09-26T11:30:20.784Z,73.74
2022-09-26T11:33:18.885Z,72.93
2022-09-26T11:36:47.695Z,71.54
2022-09-26T11:39:47.504Z,71.29
2022-09-26T11:42:36.343Z,70.59
2022-09-26T11:45:16.933Z,71.00
2022-09-26T11:48:39.233Z,70.77
2022-09-26T11:51:52.538Z,71.27
2022-09-26T11:54:47.482Z,71.66
2022-09-26T11:57:43.111Z,70.65
2022-09-26T12:00:24.711Z,70.92
2022-09-26T12:03:33.582Z,71.23
2022-09-26T12:06:14.010Z,71.55
2022-09-26T12:09:13.139Z,71.60
2022-09-26T12:11:56.679Z,71.34
2022-09-26T12:14:45.986Z,71.74
2022-09-26T12:17:35.237Z,71.09
2022-09-26T12:20:23.318Z,71.68
2022-09-26T12:23:01.448Z,71.47
2022-09-26T12:25:43.469Z,71.11
2022-09-26T12:28:31.961Z,70.93
2022-09-26T12:31:18.676Z,71.18
2022-09-26T12:34:16.716Z,70.68
2022-09-26T12:37:11.539Z,70.84
2022-09-26T12:39:57.534Z,70.40
2022-09-26T12:42:47.855Z,70.60
2022-09-26T12:45:53.714Z,70.06
2022-09-26T12:48:44.412Z,70.93
2022-09-26T12:51:28.757Z,70.42
2022-09-26T12:54:33.149Z,70.91
2022-09-26T12:57:17.369Z,71.36
2022-09-26T13:00:12.778Z,71.78
2022-09-26T13:03:11.879Z,71.88
2022-09-26T13:06:34.472Z,72.19
2022-09-26T13:09:21.967Z,72.42
2022-09-26T13:12:07.905Z,72.79
2022-09-26T13:15:00.946Z,73.97
2022-09-26T13:17:41.711Z,74.04
2022-09-26T13:20:21.286Z,74.24
2022-09-26T13:22:59.252Z,74.94
2022-09-26T13:25:38.710Z,75.41
2022-09-26T13:28:17.705Z,75.67
2022-09-26T13:30:58.194Z,75.72
2022-09-26T13:33:37.180Z,76.06
2022-09-26T13:36:08.919Z,76.27
2022-09-26T13:38:53.224Z,75.78
2022-09-26T13:41:39.807Z,75.91
2022-09-26T13:44:30.989Z,76.04
2022-09-26T13:47:17.908Z,76.02
2022-09-26T13:50:01.491Z,76.05
2022-09-26T13:52:53.007Z,76.03
2022-09-26T13:55:25.578Z,76.34
2022-09-26T13:58:19.544Z,76.19
2022-09-26T14:00:57.093Z,76.19
2022-09-26T14:03:47.354Z,76.44
2022-09-26T14:06:32.077Z,76.78
2022-09-26T14:09:24.715Z,76.88
2022-09-26T14:12:31.887Z,77.11
2022-09-26T14:15:25.922Z,77.16
2022-09-26T14:18:17.285Z,76.93
2022-09-26T14:21:16.149Z,76.92
2022-09-26T14:23:49.802Z,77.16
2022-09-26T14:26:22.485Z,77.14
2022-09-26T14:28:57.214Z,77.03
2022-09-26T14:32:01.416Z,77.21
2022-09-26T14:34:39.664Z,77.59
2022-09-26T14:37:29.567Z,77.69
2022-09-26T14:40:16.866Z,77.41
2022-09-26T14:43:00.662Z,77.19
2022-09-26T14:45:49.010Z,77.04
2022-09-26T14:48:33.717Z,76.72
2022-09-26T14:51:08.949Z,76.89
2022-09-26T14:53:45.339Z,76.88
2022-09-26T14:56:19.679Z,76.93
2022-09-26T14:58:53.441Z,77.31
2022-09-26T15:01:29.909Z,77.68
2022-09-26T15:04:04.960Z,77.73
2022-09-26T15:06:43.995Z,77.82
2022-09-26T15:09:19.320Z,77.72
2022-09-26T15:11:55.792Z,77.52
2022-09-26T15:14:33.979Z,77.62
2022-09-26T15:17:04.908Z,77.50
2022-09-26T15:19:40.884Z,77.52
2022-09-26T15:22:16.409Z,77.54
2022-09-26T15:24:46.407Z,77.54
2022-09-26T15:27:22.390Z,77.44
2022-09-26T15:29:55.374Z,77.26
2022-09-26T15:32:29.203Z,77.26
2022-09-26T15:35:05.229Z,77.32
2022-09-26T15:37:38.871Z,77.24
2022-09-26T15:40:17.876Z,77.30
2022-09-26T15:43:10.166Z,77.31
2022-09-26T15:45:59.387Z,77.52
2022-09-26T15:48:32.639Z,77.94
2022-09-26T15:51:12.843Z,77.76
2022-09-26T15:53:47.483Z,77.74
2022-09-26T15:56:23.014Z,77.55
2022-09-26T15:59:00.923Z,77.60
2022-09-26T16:01:33.313Z,77.80
2022-09-26T16:04:05.846Z,77.94
2022-09-26T16:06:45.226Z,78.52
2022-09-26T16:09:24.640Z,79.42
2022-09-26T16:11:58.325Z,78.82
2022-09-26T16:14:37.846Z,78.74
2022-09-26T16:17:30.061Z,78.72
2022-09-26T16:20:06.345Z,78.54
2022-09-26T16:22:45.867Z,78.48
2022-09-26T16:25:25.472Z,78.57
2022-09-26T16:28:17.803Z,78.81
2022-09-26T16:31:16.173Z,78.88
2022-09-26T16:33:53.062Z,78.99
2022-09-26T16:36:25.065Z,79.36
2022-09-26T16:39:02.082Z,79.62
2022-09-26T16:44:35.439Z,80.02
2022-09-26T16:47:09.305Z,79.92
2022-09-26T16:49:46.890Z,80.10
2022-09-26T16:52:34.590Z,80.47
2022-09-26T16:55:11.753Z,80.76
2022-09-26T16:57:53.759Z,81.12
2022-09-26T17:00:52.396Z,81.09
2022-09-26T17:03:26.734Z,81.15
2022-09-26T17:05:58.175Z,80.84
2022-09-26T17:08:29.157Z,80.92
2022-09-26T17:11:04.344Z,81.34
2022-09-26T17:13:40.968Z,81.38
2022-09-26T17:16:10.957Z,81.65
2022-09-26T17:18:46.686Z,81.84
2022-09-26T17:21:16.469Z,81.91
2022-09-26T17:23:45.869Z,81.66
2022-09-26T17:26:36.829Z,80.66
2022-09-26T17:29:07.450Z,81.33
2022-09-26T17:31:37.115Z,81.91
2022-09-26T17:34:08.271Z,81.51
2022-09-26T17:36:38.637Z,81.64
2022-09-26T17:39:18.747Z,81.08
2022-09-26T17:41:51.541Z,80.55
2022-09-26T17:44:23.057Z,80.42
2022-09-26T17:46:56.439Z,80.18
2022-09-26T17:49:31.301Z,80.42
2022-09-26T17:52:05.361Z,80.66
2022-09-26T17:54:41.033Z,80.76
2022-09-26T17:57:17.824Z,80.66
2022-09-26T17:59:49.132Z,81.18
2022-09-26T18:02:29.017Z,81.10
2022-09-26T18:05:03.520Z,81.30
2022-09-26T18:07:42.304Z,81.50
2022-09-26T18:10:23.626Z,81.39
2022-09-26T18:13:03.741Z,81.34
2022-09-26T18:15:34.806Z,81.74
2022-09-26T18:18:04.241Z,81.69
2022-09-26T18:20:39.846Z,81.85
2022-09-26T18:23:20.012Z,81.84
2022-09-26T18:25:55.467Z,82.92
2022-09-26T18:28:36.934Z,82.94
2022-09-26T18:31:10.063Z,82.90
2022-09-26T18:33:43.102Z,82.96
2022-09-26T18:36:13.865Z,83.07
2022-09-26T18:38:46.323Z,83.17
2022-09-26T18:41:27.622Z,83.14
2022-09-26T18:44:03.571Z,82.92
2022-09-26T18:46:36.725Z,82.95
2022-09-26T18:49:09.741Z,83.04
2022-09-26T18:51:41.862Z,83.28
2022-09-26T18:54:14.979Z,83.37
2022-09-26T18:57:04.295Z,83.27
2022-09-26T18:59:39.586Z,83.01
2022-09-26T19:02:26.684Z,82.96
2022-09-26T19:05:03.102Z,83.18
2022-09-26T19:07:45.865Z,83.38
2022-09-26T19:10:32.444Z,83.07
2022-09-26T19:13:07.906Z,82.78
2022-09-26T19:15:52.950Z,82.32
2022-09-26T19:18:26.147Z,82.58
2022-09-26T19:21:01.719Z,82.91
2022-09-26T19:23:38.864Z,82.75
2022-09-26T19:26:17.770Z,83.02
2022-09-26T19:28:52.093Z,83.12
2022-09-26T19:31:36.839Z,83.18
2022-09-26T19:34:19.694Z,83.24
2022-09-26T19:36:56.969Z,83.22
2022-09-26T19:39:32.940Z,83.33
2022-09-26T19:42:12.419Z,83.12
2022-09-26T19:44:50.963Z,83.22
2022-09-26T19:47:26.699Z,83.53
2022-09-26T19:50:04.936Z,83.64
2022-09-26T19:52:39.501Z,83.65
2022-09-26T19:55:18.687Z,83.51
2022-09-26T19:57:51.595Z,83.73
2022-09-26T20:00:24.881Z,83.93
2022-09-26T20:02:58.356Z,84.03
2022-09-26T20:05:32.143Z,83.97
2022-09-26T20:08:11.030Z,84.62
2022-09-26T20:10:44.923Z,84.71
2022-09-26T20:13:14.552Z,85.06
2022-09-26T20:15:44.355Z,84.69
2022-09-26T20:18:23.948Z,84.87
2022-09-26T20:20:56.886Z,84.80
2022-09-26T20:23:31.882Z,84.84
2022-09-26T20:26:01.334Z,84.76
2022-09-26T20:28:31.186Z,84.81
2022-09-26T20:31:01.596Z,84.82
2022-09-26T20:33:33.608Z,84.99
2022-09-26T20:36:06.810Z,85.04
2022-09-26T20:38:41.686Z,85.16
2022-09-26T20:41:22.689Z,85.00
2022-09-26T20:44:01.916Z,85.29
2022-09-26T20:46:36.851Z,85.29
2022-09-26T20:49:13.418Z,85.27
2022-09-26T20:51:42.973Z,85.56
2022-09-26T20:54:29.882Z,85.64
2022-09-26T20:57:01.380Z,85.62
2022-09-26T20:59:30.227Z,86.12
2022-09-26T21:02:05.027Z,86.03
2022-09-26T21:04:35.310Z,86.20
2022-09-26T21:07:04.723Z,86.04
2022-09-26T21:09:36.678Z,85.87
2022-09-26T21:12:13.964Z,85.99
2022-09-26T21:14:43.337Z,85.79
2022-09-26T21:17:20.330Z,85.88
2022-09-26T21:19:54.071Z,85.84
2022-09-26T21:22:46.407Z,86.28
2022-09-26T21:25:19.121Z,86.37
2022-09-26T21:27:51.656Z,86.41
2022-09-26T21:30:22.052Z,86.41
2022-09-26T21:32:55.870Z,86.29
2022-09-26T21:35:30.423Z,86.16
2022-09-26T21:38:01.965Z,85.91
2022-09-26T21:40:34.629Z,85.80
2022-09-26T21:43:11.099Z,85.87
2022-09-26T21:45:42.102Z,85.82
2022-09-26T21:48:11.752Z,85.84
2022-09-26T21:50:47.831Z,85.93
2022-09-26T21:53:22.442Z,85.77
2022-09-26T21:55:56.707Z,85.69
2022-09-26T21:58:31.685Z,85.72
2022-09-26T22:01:00.508Z,85.64
2022-09-26T22:03:34.716Z,85.68
2022-09-26T22:06:07.464Z,85.62
2022-09-26T22:08:37.108Z,85.60
2022-09-26T22:11:06.639Z,85.36
2022-09-26T22:13:36.689Z,85.40
2022-09-26T22:16:07.831Z,85.61
2022-09-26T22:18:39.062Z,85.33
2022-09-26T22:21:11.411Z,85.24
2022-09-26T22:23:43.394Z,85.26
2022-09-26T22:26:12.386Z,85.01
2022-09-26T22:28:41.225Z,84.95
2022-09-26T22:31:10.155Z,85.01
2022-09-26T22:33:39.758Z,84.84
2022-09-26T22:36:10.438Z,84.71
2022-09-26T22:38:40.152Z,84.92
2022-09-26T22:41:09.420Z,85.08
2022-09-26T22:43:38.453Z,84.82
2022-09-26T22:46:10.332Z,84.78
2022-09-26T22:48:41.937Z,84.64
2022-09-26T22:51:12.222Z,84.73
2022-09-26T22:53:43.465Z,84.53
2022-09-26T22:56:16.298Z,84.50
2022-09-26T22:58:47.845Z,84.40
2022-09-26T23:01:19.687Z,84.20
2022-09-26T23:03:52.037Z,84.45
2022-09-26T23:06:23.906Z,84.10
2022-09-26T23:08:52.957Z,83.95
2022-09-26T23:11:22.806Z,83.76
2022-09-26T23:13:53.701Z,83.60
2022-09-26T23:16:26.124Z,83.27
2022-09-26T23:18:55.097Z,83.23
2022-09-26T23:21:28.339Z,83.30
2022-09-26T23:23:58.865Z,83.22
2022-09-26T23:26:30.082Z,83.13
2022-09-26T23:29:00.028Z,83.28
2022-09-26T23:31:30.002Z,83.52
2022-09-26T23:34:00.107Z,83.48
2022-09-26T23:36:31.059Z,83.28
2022-09-26T23:39:01.287Z,83.40
2022-09-26T23:41:30.438Z,83.53
2022-09-26T23:43:59.475Z,83.76
2022-09-26T23:46:28.480Z,84.05
2022-09-26T23:48:57.303Z,84.15
2022-09-26T23:51:26.046Z,84.21
2022-09-26T23:53:57.139Z,84.42
2022-09-26T23:56:25.983Z,84.29
2022-09-26T23:58:57.776Z,84.55
